ハバロフスク の空港の天気 - METARとTAF

ハバロフスク空港 ( UHHH / KHV ) - ロシア ハバロフスク
飛行場実況気象(Metar)
観測時間08/26 05:00 VLAT (08/25 19:00 UTC)
風向・風速南西 3m/s
視程10km以上
天気現象
なし
気温13℃
湿度94%
気圧1011hPa
METARUHHH 251900Z 23003MPS CAVOK 13/12 Q1011 R23L/090060 NOSIG RMK QFE752/1003
過去の天気等 Google飛行場航空写真 Wunderground天気予報

過去48時間のMETAR

飛行場予報(TAF)
発表時間: 8/26 02:59 VLAT (8/25 16:59 UTC)
予報対象時間: 26日4時 VLAT ~ 27日10時 VLAT
風向・風速南西 3m/s
視程3100m
天気現象もや
全天の4割程度の雲 雲底高度 340m
26日4時 VLAT ~ 26日9時 VLAT に一時的に
風向・風速不定 1m/s
視程400m
天気現象
全天を覆う雲 鉛直視程 60m
26日10時 VLAT から
風向・風速南西 6m/s
視程10km以上
全天の4割程度の雲 雲底高度 340m
全天の4割程度の積乱雲 雲底高度 760m
26日13時 VLAT ~ 26日19時 VLAT に一時的に
視程5000m
天気現象弱いしゅう雨
TAF UHHH 251659Z 2518/2624 23003MPS 3100 BR SCT011
TEMPO 2518/2523 VRB01MPS 0400 FG VV002
FM260000 23006MPS 9999 SCT011 SCT025CB
TEMPO 2603/2609 5000 -SHRA